Time;durP1;ratioP1;P1;durP2;ratioP2;P2;SDS_P1;SDS_P2;PMS_P1;PMS_P2;Temp;Humidity;BMP_temperature;BMP_pressure;BME280_temperature;BME280_humidity;BME280_pressure;Samples;Min_cycle;Max_cycle;Signal;HPM_P1;HPM_P2
2022/03/03 00:02:03;;;;;;;70.80;26.30;;;;;;;;;;5054670;28;20123;-74
2022/03/03 00:04:29;;;;;;;72.50;25.83;;;;;;;;;;5071404;28;20063;-75
2022/03/03 00:06:55;;;;;;;73.63;27.98;;;;;;;;;;5053545;28;20041;-75
2022/03/03 00:09:21;;;;;;;78.35;27.15;;;;;;;;;;5070977;28;20059;-75
2022/03/03 00:11:47;;;;;;;78.10;29.05;;;;;;;;;;5071133;28;20049;-75
2022/03/03 00:14:13;;;;;;;66.53;26.83;;;;;;;;;;5054228;28;20064;-75
2022/03/03 00:16:39;;;;;;;70.10;24.85;;;;;;;;;;5054399;28;20040;-75
2022/03/03 00:19:06;;;;;;;68.75;27.25;;;;;;;;;;5071066;28;20106;-75
2022/03/03 00:21:32;;;;;;;75.97;26.50;;;;;;;;;;5071141;28;20062;-75
2022/03/03 00:23:58;;;;;;;70.53;26.98;;;;;;;;;;5070893;28;20064;-75
2022/03/03 00:26:24;;;;;;;76.38;27.55;;;;;;;;;;5070859;28;20068;-75
2022/03/03 00:28:50;;;;;;;68.05;26.38;;;;;;;;;;5054129;28;20080;-75
2022/03/03 00:31:16;;;;;;;66.20;24.92;;;;;;;;;;5070937;28;20037;-73
2022/03/03 00:33:41;;;;;;;77.00;27.98;;;;;;;;;;5054074;28;20044;-75
2022/03/03 00:36:07;;;;;;;78.50;27.13;;;;;;;;;;5054089;28;20420;-75
2022/03/03 00:38:33;;;;;;;69.93;24.92;;;;;;;;;;5070907;28;20048;-74
2022/03/03 00:40:59;;;;;;;66.63;25.60;;;;;;;;;;5053981;28;20048;-75
2022/03/03 00:43:25;;;;;;;71.82;26.83;;;;;;;;;;5054031;28;20036;-75
2022/03/03 00:45:51;;;;;;;68.65;28.13;;;;;;;;;;5054511;28;20463;-74
2022/03/03 00:48:17;;;;;;;81.28;30.45;;;;;;;;;;5071666;28;20083;-75
2022/03/03 00:50:43;;;;;;;77.07;28.02;;;;;;;;;;5071785;28;20048;-76
2022/03/03 00:53:09;;;;;;;68.63;26.27;;;;;;;;;;5055187;28;20476;-75
2022/03/03 00:55:35;;;;;;;81.72;29.27;;;;;;;;;;5055131;28;20033;-75
2022/03/03 00:58:03;;;;;;;78.43;29.70;;;;;;;;;;5071764;28;20106;-76
2022/03/03 01:00:29;;;;;;;73.47;26.27;;;;;;;;;;5071502;28;20044;-75
2022/03/03 01:02:55;;;;;;;74.90;28.48;;;;;;;;;;5055145;28;20436;-75
2022/03/03 01:05:21;;;;;;;85.55;29.25;;;;;;;;;;5054718;28;20163;-75
2022/03/03 01:07:47;;;;;;;75.80;27.88;;;;;;;;;;5055219;28;20047;-75
2022/03/03 01:10:13;;;;;;;68.78;25.75;;;;;;;;;;5071187;28;20101;-76
2022/03/03 01:12:40;;;;;;;71.05;28.60;;;;;;;;;;5054781;28;20040;-75
2022/03/03 01:15:07;;;;;;;85.40;28.80;;;;;;;;;;5071123;28;20044;-75
2022/03/03 01:17:33;;;;;;;82.25;29.92;;;;;;;;;;5071004;28;20048;-75
2022/03/03 01:20:00;;;;;;;76.18;28.85;;;;;;;;;;5054697;28;20051;-75
2022/03/03 01:22:26;;;;;;;76.57;30.73;;;;;;;;;;5070940;28;20090;-75
2022/03/03 01:24:52;;;;;;;79.55;29.77;;;;;;;;;;5047776;28;20036;-75
2022/03/03 01:27:19;;;;;;;76.55;30.15;;;;;;;;;;5051014;28;20404;-75
2022/03/03 01:29:45;;;;;;;83.60;30.23;;;;;;;;;;5050834;28;20087;-75
2022/03/03 01:32:11;;;;;;;68.72;26.63;;;;;;;;;;5051194;28;20044;-74
2022/03/03 01:34:38;;;;;;;76.68;28.35;;;;;;;;;;5034179;28;20045;-75
2022/03/03 01:37:04;;;;;;;73.20;26.02;;;;;;;;;;5051112;28;20489;-74
2022/03/03 01:39:30;;;;;;;88.72;32.53;;;;;;;;;;5034214;28;20041;-75
2022/03/03 01:41:57;;;;;;;74.97;28.02;;;;;;;;;;5033962;28;20849;-74
2022/03/03 01:44:23;;;;;;;77.40;28.58;;;;;;;;;;5034220;28;20138;-75
2022/03/03 01:46:50;;;;;;;88.13;29.13;;;;;;;;;;5034639;28;20550;-74
2022/03/03 01:49:16;;;;;;;75.82;29.10;;;;;;;;;;5034288;28;20124;-75
2022/03/03 01:51:42;;;;;;;74.22;26.90;;;;;;;;;;5050502;28;20037;-75
2022/03/03 01:54:08;;;;;;;73.07;28.63;;;;;;;;;;5050460;28;20045;-75
2022/03/03 01:56:35;;;;;;;87.28;30.00;;;;;;;;;;5033991;28;20037;-74
2022/03/03 01:59:01;;;;;;;69.70;27.65;;;;;;;;;;5033993;28;20106;-75
2022/03/03 02:01:27;;;;;;;70.45;25.58;;;;;;;;;;5050430;28;20037;-74
2022/03/03 02:03:53;;;;;;;69.38;27.23;;;;;;;;;;5034082;28;20453;-74
2022/03/03 02:06:19;;;;;;;73.05;28.00;;;;;;;;;;5050702;28;20055;-75
2022/03/03 02:08:45;;;;;;;78.00;28.55;;;;;;;;;;5033608;28;20040;-75
2022/03/03 02:11:11;;;;;;;80.72;27.02;;;;;;;;;;5050335;28;20413;-74
2022/03/03 02:13:38;;;;;;;76.35;28.80;;;;;;;;;;5033762;28;20040;-74
2022/03/03 02:16:04;;;;;;;83.82;29.80;;;;;;;;;;5033689;28;20045;-74
2022/03/03 02:18:30;;;;;;;70.35;26.95;;;;;;;;;;5033875;28;20041;-75
2022/03/03 02:20:56;;;;;;;76.80;29.15;;;;;;;;;;5033810;28;20047;-75
2022/03/03 02:23:22;;;;;;;78.97;26.67;;;;;;;;;;5033686;28;20086;-75
2022/03/03 02:25:48;;;;;;;85.95;29.85;;;;;;;;;;5033580;28;20048;-74
2022/03/03 02:28:14;;;;;;;68.38;27.63;;;;;;;;;;5049451;28;20043;-75
2022/03/03 02:30:40;;;;;;;78.13;28.77;;;;;;;;;;5050056;28;20421;-75
2022/03/03 02:33:06;;;;;;;78.63;29.33;;;;;;;;;;5033455;28;20142;-75
2022/03/03 02:35:32;;;;;;;76.07;32.17;;;;;;;;;;5050041;28;20040;-75
2022/03/03 02:37:58;;;;;;;84.45;31.17;;;;;;;;;;5050268;28;20481;-75
2022/03/03 02:40:24;;;;;;;67.85;26.90;;;;;;;;;;5033231;28;20044;-75
2022/03/03 02:42:50;;;;;;;80.40;27.38;;;;;;;;;;5033195;28;20037;-75
2022/03/03 02:45:17;;;;;;;67.68;27.30;;;;;;;;;;5033672;28;20505;-75
2022/03/03 02:47:45;;;;;;;67.40;26.25;;;;;;;;;;5050330;28;20059;-75
2022/03/03 02:50:11;;;;;;;72.38;26.85;;;;;;;;;;5033615;28;20504;-76
2022/03/03 02:52:37;;;;;;;70.63;25.77;;;;;;;;;;5049746;28;20138;-75
2022/03/03 02:55:04;;;;;;;70.88;27.52;;;;;;;;;;5049961;28;20041;-75
2022/03/03 03:00:14;;;;;;;64.15;27.38;;;;;;;;;;5049795;28;20045;-76
2022/03/03 03:02:40;;;;;;;75.57;27.40;;;;;;;;;;5033222;28;20043;-75
2022/03/03 03:05:06;;;;;;;79.97;27.45;;;;;;;;;;5033174;28;20552;-75
2022/03/03 03:07:32;;;;;;;63.15;26.08;;;;;;;;;;5033219;28;20127;-75
2022/03/03 03:09:58;;;;;;;70.38;26.50;;;;;;;;;;5049575;28;20095;-75
2022/03/03 03:12:24;;;;;;;58.95;24.40;;;;;;;;;;5049597;28;20147;-75
2022/03/03 03:14:50;;;;;;;72.57;28.83;;;;;;;;;;5033141;28;20037;-75
2022/03/03 03:17:16;;;;;;;72.70;27.52;;;;;;;;;;5049686;28;20041;-75
2022/03/03 03:19:42;;;;;;;79.18;30.42;;;;;;;;;;5033299;28;20130;-75
2022/03/03 03:22:08;;;;;;;74.72;27.33;;;;;;;;;;5033094;28;20079;-75
2022/03/03 03:24:34;;;;;;;69.10;27.30;;;;;;;;;;5032924;28;20044;-76
2022/03/03 03:27:00;;;;;;;69.95;28.02;;;;;;;;;;5049533;28;20045;-75
2022/03/03 03:29:26;;;;;;;81.15;32.72;;;;;;;;;;5033154;28;20037;-75
2022/03/03 03:31:52;;;;;;;63.83;24.85;;;;;;;;;;5049799;28;20048;-76
2022/03/03 03:34:18;;;;;;;67.82;26.98;;;;;;;;;;5032754;28;20051;-76
2022/03/03 03:36:44;;;;;;;76.15;28.75;;;;;;;;;;5049765;28;20041;-75
2022/03/03 03:39:10;;;;;;;61.45;25.80;;;;;;;;;;5049862;28;20044;-76
2022/03/03 03:41:36;;;;;;;68.20;24.35;;;;;;;;;;5035107;28;20127;-76
2022/03/03 03:44:02;;;;;;;62.42;25.52;;;;;;;;;;5036404;28;20086;-75
2022/03/03 03:46:28;;;;;;;66.47;25.95;;;;;;;;;;5036541;28;20076;-75
2022/03/03 03:48:54;;;;;;;77.00;26.98;;;;;;;;;;5036454;28;20081;-75
2022/03/03 03:51:20;;;;;;;61.47;23.05;;;;;;;;;;5036505;28;20131;-74
2022/03/03 03:53:46;;;;;;;64.63;26.25;;;;;;;;;;5048783;28;20040;-75
2022/03/03 03:56:12;;;;;;;72.57;27.20;;;;;;;;;;5054735;28;20036;-76
2022/03/03 03:58:38;;;;;;;66.93;25.05;;;;;;;;;;5071413;28;20657;-75
2022/03/03 04:01:04;;;;;;;70.18;26.30;;;;;;;;;;5071386;28;20119;-75
2022/03/03 04:03:30;;;;;;;68.03;25.58;;;;;;;;;;5071695;28;20123;-74
2022/03/03 04:05:56;;;;;;;66.57;25.00;;;;;;;;;;5069121;28;20170;-76
2022/03/03 04:08:22;;;;;;;68.78;25.33;;;;;;;;;;5071355;28;20123;-75
2022/03/03 04:10:47;;;;;;;68.53;26.33;;;;;;;;;;5071000;28;20194;-76
2022/03/03 04:13:15;;;;;;;66.55;27.70;;;;;;;;;;5054456;28;20409;-75
2022/03/03 04:15:41;;;;;;;74.28;25.45;;;;;;;;;;5071232;28;20044;-76
2022/03/03 04:18:07;;;;;;;62.92;24.98;;;;;;;;;;5054386;28;20127;-75
2022/03/03 04:20:33;;;;;;;59.90;25.80;;;;;;;;;;5070837;28;20047;-76
2022/03/03 04:22:59;;;;;;;71.45;27.15;;;;;;;;;;5054727;28;20408;-75
2022/03/03 04:25:26;;;;;;;68.60;25.75;;;;;;;;;;5055538;28;20041;-76
2022/03/03 04:27:52;;;;;;;60.30;26.90;;;;;;;;;;5072422;28;20044;-76
2022/03/03 04:30:17;;;;;;;63.05;25.67;;;;;;;;;;5072380;28;20049;-76
2022/03/03 04:32:43;;;;;;;61.95;25.27;;;;;;;;;;5072154;28;20067;-76
2022/03/03 04:35:10;;;;;;;60.85;23.85;;;;;;;;;;5072055;28;20029;-76
2022/03/03 04:37:37;;;;;;;63.15;23.70;;;;;;;;;;5055288;28;20067;-76
2022/03/03 04:40:04;;;;;;;64.72;25.48;;;;;;;;;;5071968;28;20083;-76
2022/03/03 04:42:29;;;;;;;61.95;24.15;;;;;;;;;;5055609;28;20033;-76
2022/03/03 04:44:55;;;;;;;63.03;26.00;;;;;;;;;;5072042;28;20040;-76
2022/03/03 04:47:21;;;;;;;58.72;25.20;;;;;;;;;;5071739;28;20032;-76
2022/03/03 04:49:47;;;;;;;67.57;25.65;;;;;;;;;;5055203;28;20086;-75
2022/03/03 04:52:13;;;;;;;64.57;26.58;;;;;;;;;;5054814;28;20041;-76
2022/03/03 04:54:39;;;;;;;63.03;26.42;;;;;;;;;;5071550;28;20044;-75
2022/03/03 04:57:05;;;;;;;75.03;30.38;;;;;;;;;;5071520;28;20089;-75
2022/03/03 04:59:32;;;;;;;69.03;24.83;;;;;;;;;;5071893;28;20132;-75
2022/03/03 05:01:58;;;;;;;72.25;29.48;;;;;;;;;;5054888;28;20081;-75
2022/03/03 05:04:24;;;;;;;71.60;28.75;;;;;;;;;;5054955;28;20044;-75
2022/03/03 05:06:50;;;;;;;59.38;26.55;;;;;;;;;;5071397;28;20048;-75
2022/03/03 05:09:16;;;;;;;65.20;25.30;;;;;;;;;;5071576;28;20412;-76
2022/03/03 05:11:42;;;;;;;63.97;25.88;;;;;;;;;;5071344;28;20525;-76
2022/03/03 05:14:08;;;;;;;64.97;25.75;;;;;;;;;;5054450;28;20036;-75
2022/03/03 05:16:34;;;;;;;55.90;21.52;;;;;;;;;;5054732;28;20055;-77
2022/03/03 05:19:00;;;;;;;62.33;22.33;;;;;;;;;;5071153;28;20032;-74
2022/03/03 05:21:26;;;;;;;57.55;22.98;;;;;;;;;;5071277;28;20511;-76
2022/03/03 05:23:53;;;;;;;61.53;24.42;;;;;;;;;;5054644;28;20036;-75
2022/03/03 05:26:19;;;;;;;63.42;26.92;;;;;;;;;;5071330;28;20052;-76
2022/03/03 05:28:45;;;;;;;61.42;25.08;;;;;;;;;;5070979;28;20139;-76
2022/03/03 05:31:11;;;;;;;61.72;24.90;;;;;;;;;;5054150;28;20051;-76
2022/03/03 05:33:37;;;;;;;61.83;27.17;;;;;;;;;;5070665;28;20075;-75
2022/03/03 05:36:05;;;;;;;65.55;24.35;;;;;;;;;;5070887;28;20519;-75
2022/03/03 05:38:31;;;;;;;61.88;25.13;;;;;;;;;;5054133;28;20032;-76
2022/03/03 05:40:58;;;;;;;58.10;25.10;;;;;;;;;;5053935;28;20037;-76
2022/03/03 05:43:25;;;;;;;67.10;26.67;;;;;;;;;;5070724;28;20043;-76
2022/03/03 05:45:54;;;;;;;60.60;23.98;;;;;;;;;;5054370;28;20041;-76
2022/03/03 05:48:21;;;;;;;80.93;33.10;;;;;;;;;;5070815;28;20044;-76
2022/03/03 05:50:49;;;;;;;63.10;24.55;;;;;;;;;;5053863;28;20400;-76
2022/03/03 05:53:16;;;;;;;63.95;25.67;;;;;;;;;;5053792;28;20040;-75
2022/03/03 05:55:43;;;;;;;90.35;37.28;;;;;;;;;;5070507;28;20177;-76
2022/03/03 05:58:15;;;;;;;72.35;30.58;;;;;;;;;;5054064;28;20040;-75
2022/03/03 06:00:42;;;;;;;64.43;28.58;;;;;;;;;;5070841;28;20119;-73
2022/03/03 06:03:10;;;;;;;58.80;22.85;;;;;;;;;;5069708;28;20052;-76
2022/03/03 06:05:37;;;;;;;62.78;25.50;;;;;;;;;;5070233;28;20066;-76
2022/03/03 06:08:06;;;;;;;62.00;24.65;;;;;;;;;;5053454;28;20044;-76
2022/03/03 06:10:33;;;;;;;68.63;27.23;;;;;;;;;;5070237;28;20389;-76
2022/03/03 06:13:08;;;;;;;58.53;22.80;;;;;;;;;;5070409;28;20102;-75
2022/03/03 06:15:34;;;;;;;55.78;22.42;;;;;;;;;;5070250;28;20055;-76
2022/03/03 06:18:00;;;;;;;58.63;26.95;;;;;;;;;;5053522;28;20484;-77
2022/03/03 06:20:27;;;;;;;59.13;25.05;;;;;;;;;;5070749;28;20404;-76
2022/03/03 06:22:53;;;;;;;63.75;26.05;;;;;;;;;;5070249;28;20076;-76
2022/03/03 06:25:19;;;;;;;63.30;27.45;;;;;;;;;;5066338;28;20527;-77
2022/03/03 06:27:45;;;;;;;57.20;24.80;;;;;;;;;;5067990;28;20380;-76
2022/03/03 06:30:12;;;;;;;66.68;26.85;;;;;;;;;;5068656;28;20155;-77
2022/03/03 06:32:38;;;;;;;59.83;25.98;;;;;;;;;;5068704;28;20044;-75
2022/03/03 06:35:04;;;;;;;66.35;25.77;;;;;;;;;;5067397;28;20119;-76
2022/03/03 06:37:30;;;;;;;60.15;25.40;;;;;;;;;;5065981;28;20491;-77
2022/03/03 06:39:56;;;;;;;58.97;23.65;;;;;;;;;;5064990;28;20040;-77
2022/03/03 06:42:22;;;;;;;62.65;25.27;;;;;;;;;;5065192;28;20485;-76
2022/03/03 06:44:48;;;;;;;63.15;27.02;;;;;;;;;;5065948;28;20052;-77
2022/03/03 06:47:15;;;;;;;59.50;24.23;;;;;;;;;;5051243;28;20044;-76
2022/03/03 06:49:41;;;;;;;61.85;26.10;;;;;;;;;;5048542;28;20516;-77
2022/03/03 06:52:08;;;;;;;64.50;26.20;;;;;;;;;;5048762;28;20516;-76
2022/03/03 06:54:34;;;;;;;63.83;26.30;;;;;;;;;;5064952;28;20049;-77
2022/03/03 06:57:00;;;;;;;57.28;26.30;;;;;;;;;;5048259;28;21534;-77
2022/03/03 06:59:27;;;;;;;58.83;25.67;;;;;;;;;;5043507;28;20562;-77
2022/03/03 07:01:54;;;;;;;64.18;25.52;;;;;;;;;;5048444;28;20493;-77
2022/03/03 07:04:21;;;;;;;60.53;26.77;;;;;;;;;;5047898;28;20044;-76
2022/03/03 07:06:47;;;;;;;65.97;26.88;;;;;;;;;;5045723;28;20036;-76
2022/03/03 07:09:13;;;;;;;58.60;22.98;;;;;;;;;;5064610;28;20052;-77
2022/03/03 07:11:40;;;;;;;68.72;26.38;;;;;;;;;;5064900;28;20542;-76
2022/03/03 07:14:06;;;;;;;64.80;25.27;;;;;;;;;;5044880;28;20041;-76
2022/03/03 07:16:35;;;;;;;57.35;26.30;;;;;;;;;;5042178;28;20074;-75
2022/03/03 07:19:03;;;;;;;59.00;26.40;;;;;;;;;;5042380;28;20040;-76
2022/03/03 07:21:49;;;;;;;65.55;26.95;;;;;;;;;;5041924;28;20269;-76
2022/03/03 07:24:23;;;;;;;65.95;27.42;;;;;;;;;;5044382;28;20041;-76
2022/03/03 07:26:49;;;;;;;67.57;25.70;;;;;;;;;;5044091;28;20040;-75
2022/03/03 07:29:16;;;;;;;64.57;27.23;;;;;;;;;;5058981;28;20051;-76
2022/03/03 07:31:55;;;;;;;65.38;25.40;;;;;;;;;;5058533;28;20044;-75
2022/03/03 07:34:26;;;;;;;63.08;24.92;;;;;;;;;;5043506;28;20044;-75
2022/03/03 07:36:55;;;;;;;56.97;23.70;;;;;;;;;;5058908;28;20049;-74
2022/03/03 07:39:23;;;;;;;57.63;25.42;;;;;;;;;;5041972;28;20047;-75
2022/03/03 07:41:49;;;;;;;57.65;26.42;;;;;;;;;;5057783;28;20041;-75
2022/03/03 07:44:15;;;;;;;68.20;26.42;;;;;;;;;;5059610;28;20043;-75
2022/03/03 07:46:41;;;;;;;58.85;24.50;;;;;;;;;;5040616;28;20044;-75
2022/03/03 07:49:07;;;;;;;60.85;25.98;;;;;;;;;;5043219;28;20131;-75
2022/03/03 07:51:33;;;;;;;60.95;26.02;;;;;;;;;;5041940;28;20151;-75
2022/03/03 07:54:00;;;;;;;63.47;25.83;;;;;;;;;;5057996;28;20037;-74
2022/03/03 07:56:28;;;;;;;57.53;26.38;;;;;;;;;;5043357;28;20039;-75
2022/03/03 07:59:01;;;;;;;56.30;23.73;;;;;;;;;;5041912;28;20053;-75
2022/03/03 08:01:28;;;;;;;60.58;24.17;;;;;;;;;;5041129;28;20513;-75
2022/03/03 08:03:54;;;;;;;61.00;22.98;;;;;;;;;;5042343;28;20324;-75
2022/03/03 08:06:21;;;;;;;60.88;26.90;;;;;;;;;;5042265;28;20044;-74
2022/03/03 08:08:47;;;;;;;59.80;27.58;;;;;;;;;;5035583;28;20048;-75
2022/03/03 08:11:14;;;;;;;58.40;24.42;;;;;;;;;;5039956;28;20053;-74
2022/03/03 08:13:41;;;;;;;55.97;24.17;;;;;;;;;;5057579;28;20045;-74
2022/03/03 08:16:07;;;;;;;57.90;24.50;;;;;;;;;;5042464;28;20049;-75
2022/03/03 08:18:37;;;;;;;52.40;24.10;;;;;;;;;;5041931;28;20064;-75
2022/03/03 08:21:05;;;;;;;54.70;22.70;;;;;;;;;;5042408;28;20043;-75
2022/03/03 08:23:31;;;;;;;49.78;22.88;;;;;;;;;;5059350;28;20041;-76
2022/03/03 08:25:57;;;;;;;49.72;22.10;;;;;;;;;;5060879;28;20543;-76
2022/03/03 08:28:24;;;;;;;44.20;21.40;;;;;;;;;;5040123;28;20075;-76
2022/03/03 08:31:04;;;;;;;52.60;21.52;;;;;;;;;;5042519;28;20040;-76
2022/03/03 08:33:41;;;;;;;48.97;21.88;;;;;;;;;;5069018;28;20067;-77
2022/03/03 08:36:15;;;;;;;40.20;20.55;;;;;;;;;;5052190;28;20032;-76
2022/03/03 08:38:46;;;;;;;44.28;21.10;;;;;;;;;;5068767;28;20385;-76
2022/03/03 08:41:15;;;;;;;40.60;20.98;;;;;;;;;;5051612;28;20404;-76
2022/03/03 08:43:43;;;;;;;46.15;23.17;;;;;;;;;;5051926;28;20048;-77
2022/03/03 08:46:10;;;;;;;43.80;21.65;;;;;;;;;;5051846;28;20040;-77
2022/03/03 08:48:36;;;;;;;41.78;20.48;;;;;;;;;;5068635;28;20459;-76
2022/03/03 08:51:03;;;;;;;42.80;21.67;;;;;;;;;;5068100;28;20128;-76
2022/03/03 08:53:29;;;;;;;50.97;24.77;;;;;;;;;;5067946;28;20048;-77
2022/03/03 08:55:58;;;;;;;43.03;21.55;;;;;;;;;;5068068;28;20036;-77
2022/03/03 08:58:24;;;;;;;47.40;21.85;;;;;;;;;;5051539;28;20443;-76
2022/03/03 09:00:50;;;;;;;41.17;21.52;;;;;;;;;;5068326;28;20048;-76
2022/03/03 09:03:21;;;;;;;43.35;22.42;;;;;;;;;;5051338;28;20181;-76
2022/03/03 09:05:47;;;;;;;38.45;19.90;;;;;;;;;;5067680;28;20059;-77
2022/03/03 09:08:13;;;;;;;38.30;19.95;;;;;;;;;;5068016;28;20036;-77
2022/03/03 09:10:39;;;;;;;38.38;20.13;;;;;;;;;;5050954;28;20067;-77
2022/03/03 09:13:05;;;;;;;40.17;19.48;;;;;;;;;;5068553;28;20036;-76
2022/03/03 09:15:32;;;;;;;35.65;19.38;;;;;;;;;;5051404;28;20084;-76
2022/03/03 09:17:58;;;;;;;40.38;20.05;;;;;;;;;;5067543;28;20115;-77
2022/03/03 09:20:24;;;;;;;41.10;20.95;;;;;;;;;;5051514;28;20150;-77
2022/03/03 09:22:50;;;;;;;45.63;21.17;;;;;;;;;;5068036;28;20044;-77
2022/03/03 09:25:16;;;;;;;46.60;21.98;;;;;;;;;;5050947;28;20041;-77
2022/03/03 09:27:42;;;;;;;43.78;22.45;;;;;;;;;;5067299;28;20036;-77
2022/03/03 09:30:09;;;;;;;48.72;21.90;;;;;;;;;;5050960;28;20093;-76
2022/03/03 09:32:35;;;;;;;47.72;22.08;;;;;;;;;;5067822;28;20040;-77
2022/03/03 09:35:02;;;;;;;44.40;19.25;;;;;;;;;;5051012;28;20158;-75
2022/03/03 09:37:28;;;;;;;44.10;21.05;;;;;;;;;;5067522;28;20474;-77
2022/03/03 09:39:54;;;;;;;37.90;18.77;;;;;;;;;;5067357;28;20067;-75
2022/03/03 09:42:20;;;;;;;42.42;19.35;;;;;;;;;;5050415;28;20507;-77
2022/03/03 09:44:46;;;;;;;39.72;18.45;;;;;;;;;;5051053;28;20573;-77
2022/03/03 09:47:13;;;;;;;38.40;18.63;;;;;;;;;;5068272;28;20534;-77
2022/03/03 09:49:42;;;;;;;33.40;16.70;;;;;;;;;;5066295;28;20044;-76
2022/03/03 09:52:15;;;;;;;38.42;18.77;;;;;;;;;;5067373;28;20055;-77
2022/03/03 09:54:45;;;;;;;37.78;18.10;;;;;;;;;;5066874;28;20052;-76
2022/03/03 09:57:11;;;;;;;42.17;18.85;;;;;;;;;;5050339;28;20044;-76
2022/03/03 09:59:37;;;;;;;38.85;19.85;;;;;;;;;;5067323;28;20081;-77
2022/03/03 10:02:04;;;;;;;34.97;17.25;;;;;;;;;;5067074;28;20040;-76
2022/03/03 10:04:31;;;;;;;37.10;18.95;;;;;;;;;;5049922;28;20098;-77
2022/03/03 10:07:02;;;;;;;34.50;17.67;;;;;;;;;;5050298;28;20577;-77
2022/03/03 10:09:28;;;;;;;37.75;18.13;;;;;;;;;;5050266;28;20049;-77
2022/03/03 10:12:07;;;;;;;37.40;17.05;;;;;;;;;;5066769;28;20052;-77
2022/03/03 10:14:35;;;;;;;40.13;17.73;;;;;;;;;;5049904;28;20516;-77
2022/03/03 10:17:02;;;;;;;35.17;16.10;;;;;;;;;;5066573;28;20051;-77
2022/03/03 10:19:28;;;;;;;30.67;16.73;;;;;;;;;;5066852;28;20059;-77
2022/03/03 10:21:55;;;;;;;35.33;18.42;;;;;;;;;;5050374;28;20484;-77
2022/03/03 10:24:24;;;;;;;32.33;16.08;;;;;;;;;;5050507;28;20160;-77
2022/03/03 10:26:58;;;;;;;30.55;15.15;;;;;;;;;;5050005;28;20044;-77
2022/03/03 10:29:24;;;;;;;29.25;14.43;;;;;;;;;;5066145;28;20079;-77
2022/03/03 10:31:54;;;;;;;27.58;15.63;;;;;;;;;;5066839;28;20501;-77
2022/03/03 10:34:21;;;;;;;31.02;15.98;;;;;;;;;;5066469;28;20067;-77
2022/03/03 10:37:00;;;;;;;30.55;15.32;;;;;;;;;;5066818;28;20040;-77
2022/03/03 10:39:38;;;;;;;32.20;14.68;;;;;;;;;;5066831;28;20052;-77
2022/03/03 10:42:11;;;;;;;28.35;14.48;;;;;;;;;;5066492;28;20118;-77
2022/03/03 10:44:37;;;;;;;30.73;15.52;;;;;;;;;;5049924;28;20043;-77
2022/03/03 10:47:07;;;;;;;29.60;14.38;;;;;;;;;;5066865;28;20400;-78
2022/03/03 10:49:37;;;;;;;26.87;14.37;;;;;;;;;;5067228;28;20411;-78
2022/03/03 10:52:13;;;;;;;25.30;14.10;;;;;;;;;;5070455;28;20275;-76
2022/03/03 10:54:48;;;;;;;28.00;14.43;;;;;;;;;;5053313;28;20378;-78
2022/03/03 10:57:29;;;;;;;29.25;13.38;;;;;;;;;;5053725;28;20454;-77
2022/03/03 10:59:56;;;;;;;27.55;14.75;;;;;;;;;;5053621;28;20044;-76
2022/03/03 11:02:22;;;;;;;32.47;15.07;;;;;;;;;;5053977;28;20206;-77
2022/03/03 11:04:48;;;;;;;26.23;12.75;;;;;;;;;;5053598;28;20131;-77
2022/03/03 11:07:15;;;;;;;26.92;14.48;;;;;;;;;;5053800;28;20048;-76
2022/03/03 11:09:42;;;;;;;28.30;13.13;;;;;;;;;;5070093;28;20068;-77
2022/03/03 11:12:09;;;;;;;29.10;16.40;;;;;;;;;;5070306;28;20579;-76
2022/03/03 11:14:35;;;;;;;32.80;15.45;;;;;;;;;;5071017;28;20044;-76
2022/03/03 11:17:02;;;;;;;29.27;14.15;;;;;;;;;;5053334;28;20123;-76
2022/03/03 11:19:29;;;;;;;27.75;15.57;;;;;;;;;;5053605;28;20040;-78
2022/03/03 11:21:55;;;;;;;31.80;15.32;;;;;;;;;;5053155;28;20045;-78
2022/03/03 11:24:22;;;;;;;29.83;14.32;;;;;;;;;;5053201;28;20412;-77
2022/03/03 11:26:49;;;;;;;29.73;15.85;;;;;;;;;;5053614;28;20058;-77
2022/03/03 11:29:16;;;;;;;27.58;13.98;;;;;;;;;;5069816;28;20041;-77
2022/03/03 11:31:59;;;;;;;32.75;15.48;;;;;;;;;;5069822;28;20448;-77
2022/03/03 11:34:31;;;;;;;28.35;15.20;;;;;;;;;;5069964;28;20044;-77
2022/03/03 11:37:03;;;;;;;26.88;13.38;;;;;;;;;;5069876;28;20040;-76
2022/03/03 11:39:46;;;;;;;25.63;13.68;;;;;;;;;;5070495;28;20159;-78
2022/03/03 11:42:25;;;;;;;27.92;14.77;;;;;;;;;;5052397;28;20051;-77
2022/03/03 11:44:55;;;;;;;23.77;13.70;;;;;;;;;;5052797;28;20051;-78
2022/03/03 11:47:23;;;;;;;29.60;13.80;;;;;;;;;;5069829;28;20044;-77
2022/03/03 11:49:58;;;;;;;26.05;14.70;;;;;;;;;;5069793;28;20408;-78
2022/03/03 11:52:24;;;;;;;28.50;14.18;;;;;;;;;;5066884;28;20356;-75
2022/03/03 11:55:10;;;;;;;27.38;14.63;;;;;;;;;;5051889;28;20047;-78
2022/03/03 11:57:36;;;;;;;23.27;13.90;;;;;;;;;;5051686;28;20048;-77
2022/03/03 12:00:06;;;;;;;26.90;13.90;;;;;;;;;;5069016;28;20040;-76
2022/03/03 12:02:32;;;;;;;26.35;13.50;;;;;;;;;;5067820;28;20521;-77
2022/03/03 12:05:17;;;;;;;28.65;14.70;;;;;;;;;;5068667;28;20063;-77
2022/03/03 12:07:46;;;;;;;27.60;14.43;;;;;;;;;;5069178;28;20094;-76
2022/03/03 12:10:18;;;;;;;27.15;14.95;;;;;;;;;;5069712;28;20820;-78
2022/03/03 12:12:44;;;;;;;26.55;14.15;;;;;;;;;;5053649;28;20476;-77
2022/03/03 12:15:10;;;;;;;22.85;13.00;;;;;;;;;;5068413;28;20041;-77
2022/03/03 12:17:40;;;;;;;30.90;14.27;;;;;;;;;;5051641;28;20040;-76
2022/03/03 12:20:47;;;;;;;28.48;13.57;;;;;;;;;;5052185;28;20508;-77
2022/03/03 12:23:18;;;;;;;24.17;13.40;;;;;;;;;;5066560;28;20121;-77
2022/03/03 12:25:50;;;;;;;27.25;13.50;;;;;;;;;;5051552;28;20044;-77
2022/03/03 12:28:19;;;;;;;24.65;13.38;;;;;;;;;;5068528;28;20467;-78
2022/03/03 12:30:46;;;;;;;22.73;11.38;;;;;;;;;;5051482;28;20159;-77
2022/03/03 12:33:23;;;;;;;24.80;12.52;;;;;;;;;;5051563;28;20044;-78
2022/03/03 12:35:49;;;;;;;25.02;13.00;;;;;;;;;;5052514;28;20472;-77
2022/03/03 12:38:15;;;;;;;28.08;15.18;;;;;;;;;;5071864;28;20607;-79
2022/03/03 12:40:42;;;;;;;28.40;12.60;;;;;;;;;;5047414;28;20037;-77
2022/03/03 12:43:13;;;;;;;21.90;12.40;;;;;;;;;;5035212;28;20041;-77
2022/03/03 12:45:39;;;;;;;21.97;13.13;;;;;;;;;;5052330;28;20041;-77
2022/03/03 12:48:06;;;;;;;25.27;13.68;;;;;;;;;;5035145;28;20043;-77
2022/03/03 12:50:33;;;;;;;31.02;14.35;;;;;;;;;;5051726;28;20048;-78
2022/03/03 12:53:00;;;;;;;29.42;13.88;;;;;;;;;;5052426;28;20131;-77
2022/03/03 12:55:36;;;;;;;24.40;12.05;;;;;;;;;;5051658;28;20036;-77
2022/03/03 12:58:03;;;;;;;19.70;12.02;;;;;;;;;;5051813;28;20037;-78
2022/03/03 13:00:31;;;;;;;26.40;13.38;;;;;;;;;;5035231;28;20036;-77
2022/03/03 13:02:59;;;;;;;27.42;13.65;;;;;;;;;;5034894;28;20068;-78
2022/03/03 13:05:28;;;;;;;26.42;13.32;;;;;;;;;;5034807;28;20432;-78
2022/03/03 13:07:54;;;;;;;24.80;13.52;;;;;;;;;;5035082;28;20041;-76
2022/03/03 13:10:20;;;;;;;27.10;14.02;;;;;;;;;;5051267;28;20094;-78
2022/03/03 13:12:46;;;;;;;24.17;12.68;;;;;;;;;;5034460;28;20131;-77
2022/03/03 13:15:12;;;;;;;23.60;11.93;;;;;;;;;;5034624;28;20041;-78
2022/03/03 13:17:57;;;;;;;24.50;13.25;;;;;;;;;;5034889;28;20037;-77
2022/03/03 13:20:24;;;;;;;29.33;15.07;;;;;;;;;;5051265;28;20048;-77
2022/03/03 13:22:50;;;;;;;25.20;12.52;;;;;;;;;;5034860;28;20033;-78
2022/03/03 13:25:16;;;;;;;23.15;12.35;;;;;;;;;;5034420;28;20052;-78
2022/03/03 13:27:46;;;;;;;21.45;11.38;;;;;;;;;;5034510;28;20083;-77
2022/03/03 13:30:12;;;;;;;28.20;12.95;;;;;;;;;;5034606;28;20119;-77
2022/03/03 13:32:45;;;;;;;23.00;11.00;;;;;;;;;;5034692;28;20044;-77
2022/03/03 13:35:12;;;;;;;22.67;12.80;;;;;;;;;;5034217;28;20072;-77
2022/03/03 13:37:37;;;;;;;22.17;11.63;;;;;;;;;;5050991;28;20033;-77
2022/03/03 13:40:18;;;;;;;24.65;12.45;;;;;;;;;;5050957;28;20074;-76
2022/03/03 13:42:44;;;;;;;27.08;13.70;;;;;;;;;;5050714;28;20516;-77
2022/03/03 13:45:10;;;;;;;26.42;12.80;;;;;;;;;;5034194;28;20038;-77
2022/03/03 13:47:41;;;;;;;23.98;12.25;;;;;;;;;;5033993;28;20048;-77
2022/03/03 13:50:08;;;;;;;23.08;12.20;;;;;;;;;;5034291;28;20086;-77
2022/03/03 13:52:35;;;;;;;27.42;12.50;;;;;;;;;;5050835;28;20053;-77
2022/03/03 13:55:11;;;;;;;25.42;13.23;;;;;;;;;;5063428;28;20036;-77
2022/03/03 13:57:48;;;;;;;24.95;12.30;;;;;;;;;;5047011;28;20040;-78
2022/03/03 14:00:33;;;;;;;23.73;11.98;;;;;;;;;;5062896;28;20475;-77
2022/03/03 14:03:10;;;;;;;22.58;12.18;;;;;;;;;;5047134;28;20071;-77
2022/03/03 14:05:53;;;;;;;23.55;11.63;;;;;;;;;;5046710;28;20040;-77
2022/03/03 14:08:33;;;;;;;24.05;12.75;;;;;;;;;;5046892;28;20118;-77
2022/03/03 14:10:59;;;;;;;22.33;11.73;;;;;;;;;;5063415;28;20140;-76
2022/03/03 14:13:26;;;;;;;23.30;11.80;;;;;;;;;;5064539;28;20121;-77
2022/03/03 14:15:54;;;;;;;23.50;11.85;;;;;;;;;;5065160;28;20158;-77
2022/03/03 14:18:21;;;;;;;24.80;12.85;;;;;;;;;;5048849;28;20043;-76
2022/03/03 14:20:50;;;;;;;25.35;12.90;;;;;;;;;;5048948;28;20054;-77
2022/03/03 14:23:19;;;;;;;24.45;12.25;;;;;;;;;;5046461;28;20131;-77